Emerald Hornblower — WCY6120 — position and weather

sailwx.info

Track history (hours):
 
Tides and Currents Weather Stations Pressure Air Temp Water Temp Dewpoint Dewpoint Depression Visibility Wind Speed Wind Dir Waves Ship Positions

Emerald Hornblower

Owner: HORNBLOWER CRUISES AND EVENTS, SAN DIEGO, CA. More information available from US FCC via Universal Licensing System and Coast Guard Vessel Documentation Center.

Last reported at 2018-Jul-19 01:36 UTC. Time now 2018-Jul-19 13:27 UTC.
Position N 32°43' W 117°10'.

Length 23 m; draft 1 m.

MMSI: 367370230.

Date/timePositionNaut miles runAvg speedWind from/ knotsBaromVisibWave heightAir tempDewpointWater temp
2018-Jul-19 01:36N 32°43' W 117°10'1 7.6
2018-Jul-19 01:30N 32°43' W 117°11'2 5.0
2018-Jul-19 01:00N 32°42' W 117°14'3 4.1
2018-Jul-19 00:18N 32°43' W 117°11'3 7.9
2018-Jul-18 23:52N 32°40' W 117°08'4 0.2
2018-Jul-18 01:49N 32°43' W 117°11'0 1.0
2018-Jul-18 01:27N 32°43' W 117°11'3 6.6
2018-Jul-18 01:00N 32°42' W 117°14'3 4.2
2018-Jul-18 00:15N 32°43' W 117°10'2 3.8
2018-Jul-17 23:41N 32°41' W 117°09'2 9.7
2018-Jul-17 23:30N 32°42' W 117°10'1 0.6
2018-Jul-17 22:18N 32°43' W 117°10'1 1.9
2018-Jul-17 21:58N 32°43' W 117°11'2 2.6
2018-Jul-17 21:23N 32°44' W 117°13'0 0.0
2018-Jul-17 21:00N 32°44' W 117°13'  
2018-Jul-15 06:46N 32°43' W 117°11'0 1.3
2018-Jul-15 06:26N 32°43' W 117°10'0 1.0
2018-Jul-15 05:59N 32°42' W 117°10'2 3.1
2018-Jul-15 05:29N 32°43' W 117°12'1 3.0
2018-Jul-15 05:00N 32°43' W 117°14'2 3.3
2018-Jul-15 04:30N 32°43' W 117°12'1 0.7
2018-Jul-15 02:56N 32°43' W 117°11'2 3.8
2018-Jul-15 02:28N 32°41' W 117°09'4 7.9
2018-Jul-15 02:00N 32°42' W 117°14'2 4.3
2018-Jul-15 01:27N 32°43' W 117°12'1 1.2
2018-Jul-15 00:35N 32°43' W 117°10'0 0.3
2018-Jul-15 00:24N 32°43' W 117°10'1 0.0
2018-Jul-14 04:25N 32°42' W 117°10'1 1.2
2018-Jul-14 03:56N 32°42' W 117°10'1 2.9
2018-Jul-14 03:30N 32°41' W 117°10'2 3.9
2018-Jul-14 03:00N 32°43' W 117°11'3 5.2
2018-Jul-14 02:30N 32°43' W 117°14'1 1.5
2018-Jul-14 02:00N 32°42' W 117°14'2 0.1
2018-Jul-13 01:18N 32°43' W 117°12'2 5.6
2018-Jul-13 01:00N 32°42' W 117°14'3 3.6
2018-Jul-13 00:13N 32°43' W 117°11'2 8.3
2018-Jul-12 23:59N 32°42' W 117°09'1 1.6
2018-Jul-12 23:30N 32°42' W 117°10'2 3.2
2018-Jul-12 22:58N 32°43' W 117°12'2 4.6
2018-Jul-12 22:30N 32°42' W 117°14'3 0.1
2018-Jul-11 21:40N 32°42' W 117°10'1 3.5
2018-Jul-11 21:30N 32°42' W 117°11'2 4.7
2018-Jul-11 21:00N 32°43' W 117°13'4 5.3
2018-Jul-11 20:17N 32°41' W 117°09'1 0.9
2018-Jul-11 18:44N 32°42' W 117°10'1 0.0
2018-Jul-11 01:43N 32°43' W 117°11'0 1.3
2018-Jul-11 01:28N 32°43' W 117°10'3 7.1
2018-Jul-11 01:00N 32°42' W 117°14'3 5.9
2018-Jul-11 00:27N 32°43' W 117°10'1 2.5
2018-Jul-11 00:00N 32°42' W 117°10'0 0.3
2018-Jul-10 23:30N 32°42' W 117°10'1 1.5
2018-Jul-10 22:45N 32°43' W 117°10'0 0.0
2018-Jul-10 01:41N 32°43' W 117°11'0 1.8
2018-Jul-10 01:30N 32°43' W 117°10'3 6.6
2018-Jul-10 01:00N 32°42' W 117°14'3 6.5
2018-Jul-10 00:30N 32°43' W 117°10'2 3.3
2018-Jul-10 00:00N 32°42' W 117°09'2 2.7
2018-Jul-09 23:27N 32°43' W 117°11'0 0.5
2018-Jul-09 22:43N 32°43' W 117°10'0 0.0
2018-Jul-09 22:30N 32°43' W 117°10'0 0.4
2018-Jul-09 22:00N 32°43' W 117°11'  
Track history (hours):
 
Tides and Currents Weather Stations Pressure Air Temp Water Temp Dewpoint Dewpoint Depression Visibility Wind Speed Wind Dir Waves Ship Positions

Emerald Hornblower

Owner: HORNBLOWER CRUISES AND EVENTS, SAN DIEGO, CA. More information available from US FCC via Universal Licensing System and Coast Guard Vessel Documentation Center.

Last reported at 2018-Jul-19 01:36 UTC. Time now 2018-Jul-19 13:27 UTC.
Position N 32°43' W 117°10'.

Length 23 m; draft 1 m.

MMSI: 367370230.

Date/timePositionNaut miles runAvg speedWind from/ knotsBaromVisibWave heightAir tempDewpointWater temp
2018-Jul-19 01:36N 32°43' W 117°10'1 7.6
2018-Jul-19 01:30N 32°43' W 117°11'2 5.0
2018-Jul-19 01:00N 32°42' W 117°14'3 4.1
2018-Jul-19 00:18N 32°43' W 117°11'3 7.9
2018-Jul-18 23:52N 32°40' W 117°08'4 0.2
2018-Jul-18 01:49N 32°43' W 117°11'0 1.0
2018-Jul-18 01:27N 32°43' W 117°11'3 6.6
2018-Jul-18 01:00N 32°42' W 117°14'3 4.2
2018-Jul-18 00:15N 32°43' W 117°10'2 3.8
2018-Jul-17 23:41N 32°41' W 117°09'2 9.7
2018-Jul-17 23:30N 32°42' W 117°10'1 0.6
2018-Jul-17 22:18N 32°43' W 117°10'1 1.9
2018-Jul-17 21:58N 32°43' W 117°11'2 2.6
2018-Jul-17 21:23N 32°44' W 117°13'0 0.0
2018-Jul-17 21:00N 32°44' W 117°13'  
2018-Jul-15 06:46N 32°43' W 117°11'0 1.3
2018-Jul-15 06:26N 32°43' W 117°10'0 1.0
2018-Jul-15 05:59N 32°42' W 117°10'2 3.1
2018-Jul-15 05:29N 32°43' W 117°12'1 3.0
2018-Jul-15 05:00N 32°43' W 117°14'2 3.3
2018-Jul-15 04:30N 32°43' W 117°12'1 0.7
2018-Jul-15 02:56N 32°43' W 117°11'2 3.8
2018-Jul-15 02:28N 32°41' W 117°09'4 7.9
2018-Jul-15 02:00N 32°42' W 117°14'2 4.3
2018-Jul-15 01:27N 32°43' W 117°12'1 1.2
2018-Jul-15 00:35N 32°43' W 117°10'0 0.3
2018-Jul-15 00:24N 32°43' W 117°10'1 0.0
2018-Jul-14 04:25N 32°42' W 117°10'1 1.2
2018-Jul-14 03:56N 32°42' W 117°10'1 2.9
2018-Jul-14 03:30N 32°41' W 117°10'2 3.9
2018-Jul-14 03:00N 32°43' W 117°11'3 5.2
2018-Jul-14 02:30N 32°43' W 117°14'1 1.5
2018-Jul-14 02:00N 32°42' W 117°14'2 0.1
2018-Jul-13 01:18N 32°43' W 117°12'2 5.6
2018-Jul-13 01:00N 32°42' W 117°14'3 3.6
2018-Jul-13 00:13N 32°43' W 117°11'2 8.3
2018-Jul-12 23:59N 32°42' W 117°09'1 1.6
2018-Jul-12 23:30N 32°42' W 117°10'2 3.2
2018-Jul-12 22:58N 32°43' W 117°12'2 4.6
2018-Jul-12 22:30N 32°42' W 117°14'3 0.1
2018-Jul-11 21:40N 32°42' W 117°10'1 3.5
2018-Jul-11 21:30N 32°42' W 117°11'2 4.7
2018-Jul-11 21:00N 32°43' W 117°13'4 5.3
2018-Jul-11 20:17N 32°41' W 117°09'1 0.9
2018-Jul-11 18:44N 32°42' W 117°10'1 0.0
2018-Jul-11 01:43N 32°43' W 117°11'0 1.3
2018-Jul-11 01:28N 32°43' W 117°10'3 7.1
2018-Jul-11 01:00N 32°42' W 117°14'3 5.9
2018-Jul-11 00:27N 32°43' W 117°10'1 2.5
2018-Jul-11 00:00N 32°42' W 117°10'0 0.3
2018-Jul-10 23:30N 32°42' W 117°10'1 1.5
2018-Jul-10 22:45N 32°43' W 117°10'0 0.0
2018-Jul-10 01:41N 32°43' W 117°11'0 1.8
2018-Jul-10 01:30N 32°43' W 117°10'3 6.6
2018-Jul-10 01:00N 32°42' W 117°14'3 6.5
2018-Jul-10 00:30N 32°43' W 117°10'2 3.3
2018-Jul-10 00:00N 32°42' W 117°09'2 2.7
2018-Jul-09 23:27N 32°43' W 117°11'0 0.5
2018-Jul-09 22:43N 32°43' W 117°10'0 0.0
2018-Jul-09 22:30N 32°43' W 117°10'0 0.4
2018-Jul-09 22:00N 32°43' W 117°11'  

Dump ship's entire track history